createdAt,value
2019-02-17T00:00:20.402Z,0.00
2019-02-17T00:01:20.344Z,0.00
2019-02-17T00:02:20.323Z,0.00
2019-02-17T00:03:20.230Z,0.00
2019-02-17T00:04:20.175Z,0.00
2019-02-17T00:05:20.122Z,0.00
2019-02-17T00:06:20.064Z,0.00
2019-02-17T00:07:20.048Z,0.00
2019-02-17T00:08:19.952Z,0.00
2019-02-17T00:09:19.895Z,0.00
2019-02-17T00:10:19.844Z,0.00
2019-02-17T00:11:19.786Z,0.00
2019-02-17T00:12:19.762Z,0.00
2019-02-17T00:13:19.709Z,0.00
2019-02-17T00:14:19.619Z,0.00
2019-02-17T00:15:19.565Z,0.00
2019-02-17T00:16:19.532Z,0.00
2019-02-17T00:17:19.453Z,0.00
2019-02-17T00:18:19.402Z,0.00
2019-02-17T00:19:19.376Z,0.00
2019-02-17T00:20:19.291Z,0.00
2019-02-17T00:21:19.260Z,0.00
2019-02-17T00:22:19.212Z,0.00
2019-02-17T00:23:19.128Z,0.00
2019-02-17T00:24:19.064Z,0.00
2019-02-17T00:25:20.484Z,0.00
2019-02-17T00:26:18.955Z,0.00
2019-02-17T00:27:18.926Z,0.00
2019-02-17T00:28:18.838Z,0.00
2019-02-17T00:29:18.786Z,0.00
2019-02-17T00:30:18.729Z,0.00
2019-02-17T00:31:18.675Z,0.00
2019-02-17T00:32:18.655Z,0.00
2019-02-17T00:33:18.592Z,0.00
2019-02-17T00:34:18.508Z,0.00
2019-02-17T00:35:18.454Z,0.00
2019-02-17T00:36:18.395Z,0.00
2019-02-17T00:37:18.338Z,0.00
2019-02-17T00:38:18.331Z,0.00
2019-02-17T00:39:18.235Z,0.00
2019-02-17T00:40:18.175Z,0.00
2019-02-17T00:41:18.118Z,0.00
2019-02-17T00:42:18.061Z,0.00
2019-02-17T00:43:18.037Z,0.00
2019-02-17T00:44:17.985Z,0.00
2019-02-17T00:45:17.894Z,0.00
2019-02-17T00:46:17.849Z,0.00
2019-02-17T00:47:17.783Z,0.00
2019-02-17T00:48:17.761Z,0.00
2019-02-17T00:49:17.705Z,0.00
2019-02-17T00:50:17.614Z,0.00
2019-02-17T00:51:17.563Z,0.00
2019-02-17T00:52:17.504Z,0.00
2019-02-17T00:53:17.446Z,0.00
2019-02-17T00:54:17.424Z,0.00
2019-02-17T00:55:17.336Z,0.00
2019-02-17T00:56:17.284Z,0.00
2019-02-17T00:57:17.254Z,0.00
2019-02-17T00:58:17.169Z,0.00
2019-02-17T00:59:17.114Z,0.00
2019-02-17T01:00:17.056Z,0.00
2019-02-17T01:01:17.039Z,0.00
2019-02-17T01:02:16.946Z,0.00
2019-02-17T01:03:16.891Z,0.00
2019-02-17T01:04:16.836Z,0.00
2019-02-17T01:05:16.785Z,0.00
2019-02-17T01:06:16.754Z,0.00
2019-02-17T01:07:16.670Z,0.00
2019-02-17T01:08:16.617Z,0.00
2019-02-17T01:09:16.597Z,0.00
2019-02-17T01:10:16.500Z,0.00
2019-02-17T01:11:16.445Z,0.00
2019-02-17T01:12:16.389Z,0.00
2019-02-17T01:13:16.331Z,0.00
2019-02-17T01:14:16.305Z,0.00
2019-02-17T01:15:16.250Z,0.00
2019-02-17T01:16:16.194Z,0.00
2019-02-17T01:17:16.110Z,0.00
2019-02-17T01:18:16.056Z,0.00
2019-02-17T01:19:15.994Z,0.00
2019-02-17T01:20:15.948Z,0.00
2019-02-17T01:21:15.914Z,0.00
2019-02-17T01:22:15.826Z,0.00
2019-02-17T01:23:15.770Z,0.00
2019-02-17T01:24:15.716Z,0.00
2019-02-17T01:25:15.663Z,0.00
2019-02-17T01:26:15.634Z,0.00
2019-02-17T01:27:15.548Z,0.00
2019-02-17T01:28:15.491Z,0.00
2019-02-17T01:29:20.478Z,0.00
2019-02-17T01:30:15.381Z,0.00
2019-02-17T01:31:15.358Z,0.00
2019-02-17T01:32:15.268Z,0.00
2019-02-17T01:33:15.209Z,0.00
2019-02-17T01:34:15.190Z,0.00
2019-02-17T01:35:15.100Z,0.00
2019-02-17T01:36:15.044Z,0.00
2019-02-17T01:37:14.987Z,0.00
2019-02-17T01:38:14.931Z,0.00
2019-02-17T01:39:14.915Z,0.00
2019-02-17T01:40:14.822Z,0.00
2019-02-17T01:41:14.762Z,0.00
2019-02-17T01:42:14.707Z,0.00
2019-02-17T01:43:14.653Z,0.00
2019-02-17T01:44:14.631Z,0.00
2019-02-17T01:45:14.544Z,0.00
2019-02-17T01:46:14.484Z,0.00
2019-02-17T01:47:14.428Z,0.00
2019-02-17T01:48:14.404Z,0.00
2019-02-17T01:49:14.350Z,0.00
2019-02-17T01:50:14.258Z,0.00
2019-02-17T01:51:14.208Z,0.00
2019-02-17T01:52:14.181Z,0.00
2019-02-17T01:53:14.089Z,0.00
2019-02-17T01:54:14.035Z,0.00
2019-02-17T01:55:14.012Z,0.00
2019-02-17T01:56:13.958Z,0.00
2019-02-17T01:57:13.869Z,0.00
2019-02-17T01:58:13.811Z,0.00
2019-02-17T01:59:13.796Z,0.00
2019-02-17T02:00:13.704Z,0.00
2019-02-17T02:01:13.642Z,0.00
2019-02-17T02:02:13.588Z,0.00
2019-02-17T02:03:13.532Z,0.00
2019-02-17T02:04:13.508Z,0.00
2019-02-17T02:05:13.423Z,0.00
2019-02-17T02:06:13.367Z,0.00
2019-02-17T02:07:13.342Z,0.00
2019-02-17T02:08:13.252Z,0.00
2019-02-17T02:09:13.195Z,0.00
2019-02-17T02:10:13.176Z,0.00
2019-02-17T02:11:13.086Z,0.00
2019-02-17T02:12:13.061Z,0.00
2019-02-17T02:13:12.971Z,0.00
2019-02-17T02:14:12.914Z,0.00
2019-02-17T02:15:12.861Z,0.00
2019-02-17T02:16:12.834Z,0.00
2019-02-17T02:17:12.744Z,0.00
2019-02-17T02:18:12.721Z,0.00
2019-02-17T02:19:12.639Z,0.00
2019-02-17T02:20:12.580Z,0.00
2019-02-17T02:21:12.525Z,0.00
2019-02-17T02:22:12.467Z,0.00
2019-02-17T02:23:12.439Z,0.00
2019-02-17T02:24:12.356Z,0.00
2019-02-17T02:25:12.299Z,0.00
2019-02-17T02:26:12.244Z,0.00
2019-02-17T02:27:12.184Z,0.00
2019-02-17T02:28:12.167Z,0.00
2019-02-17T02:29:12.072Z,0.00
2019-02-17T02:30:12.017Z,0.00
2019-02-17T02:31:11.966Z,0.00
2019-02-17T02:32:11.904Z,0.00
2019-02-17T02:33:11.881Z,0.00
2019-02-17T02:34:11.792Z,0.00
2019-02-17T02:35:11.741Z,0.00
2019-02-17T02:36:11.680Z,0.00
2019-02-17T02:37:11.621Z,0.00
2019-02-17T02:38:13.546Z,0.00
2019-02-17T02:39:11.510Z,0.00
2019-02-17T02:40:11.459Z,0.00
2019-02-17T02:41:11.399Z,0.00
2019-02-17T02:42:11.342Z,0.00
2019-02-17T02:43:11.343Z,0.00
2019-02-17T02:44:11.229Z,0.00
2019-02-17T02:45:11.170Z,0.00
2019-02-17T02:46:11.122Z,0.00
2019-02-17T02:47:11.058Z,0.00
2019-02-17T02:48:11.035Z,0.00
2019-02-17T02:49:10.947Z,0.00
2019-02-17T02:50:10.895Z,0.00
2019-02-17T02:51:10.891Z,0.00
2019-02-17T02:52:10.779Z,0.00
2019-02-17T02:53:10.720Z,0.00
2019-02-17T02:54:10.673Z,0.00
2019-02-17T02:55:10.608Z,0.00
2019-02-17T02:56:10.597Z,0.00
2019-02-17T02:57:10.494Z,0.00
2019-02-17T02:58:10.439Z,0.00
2019-02-17T02:59:10.382Z,0.00
2019-02-17T03:00:10.352Z,0.00
2019-02-17T03:01:10.306Z,0.00
2019-02-17T03:02:10.214Z,0.00
2019-02-17T03:03:10.196Z,0.00
2019-02-17T03:04:10.101Z,0.00
2019-02-17T03:05:10.045Z,0.00
2019-02-17T03:06:09.991Z,0.00
2019-02-17T03:07:09.932Z,0.00
2019-02-17T03:08:09.917Z,0.00
2019-02-17T03:09:09.822Z,0.00
2019-02-17T03:10:09.766Z,0.00
2019-02-17T03:11:09.709Z,0.00
2019-02-17T03:12:09.659Z,0.00
2019-02-17T03:13:09.630Z,0.00
2019-02-17T03:14:09.534Z,0.00
2019-02-17T03:15:09.480Z,0.00
2019-02-17T03:16:09.422Z,0.00
2019-02-17T03:17:09.364Z,0.00
2019-02-17T03:18:09.357Z,0.00
2019-02-17T03:19:09.254Z,0.00
2019-02-17T03:20:09.200Z,0.00
2019-02-17T03:21:09.138Z,0.00
2019-02-17T03:22:09.081Z,0.00
2019-02-17T03:23:09.059Z,0.00
2019-02-17T03:24:08.970Z,0.00
2019-02-17T03:25:08.909Z,0.00
2019-02-17T03:26:08.855Z,0.00
2019-02-17T03:27:08.830Z,0.00
2019-02-17T03:28:08.741Z,0.00
2019-02-17T03:29:08.682Z,0.00
2019-02-17T03:30:08.677Z,0.00
2019-02-17T03:31:08.569Z,0.00
2019-02-17T03:32:08.558Z,0.00
2019-02-17T03:33:08.460Z,0.00
2019-02-17T03:34:08.407Z,0.00
2019-02-17T03:35:08.347Z,0.00
2019-02-17T03:36:08.287Z,0.00
2019-02-17T03:37:08.260Z,0.00
2019-02-17T03:38:08.175Z,0.00
2019-02-17T03:39:08.116Z,0.00
2019-02-17T03:40:08.068Z,0.00
2019-02-17T03:41:08.008Z,0.00
2019-02-17T03:42:07.984Z,0.00
2019-02-17T03:43:07.888Z,0.00
2019-02-17T03:44:07.838Z,0.00
2019-02-17T03:45:07.782Z,0.00
2019-02-17T03:46:07.719Z,0.00
2019-02-17T03:47:07.694Z,0.00
2019-02-17T03:48:07.614Z,0.00
2019-02-17T03:49:07.552Z,0.00
2019-02-17T03:50:07.492Z,0.00
2019-02-17T03:51:07.450Z,0.00
2019-02-17T03:52:07.411Z,0.00
2019-02-17T03:53:07.355Z,0.00
2019-02-17T03:54:07.264Z,0.00
2019-02-17T03:55:07.225Z,0.00
2019-02-17T03:56:07.153Z,0.00
2019-02-17T03:57:07.106Z,0.00
2019-02-17T03:58:07.063Z,0.00
2019-02-17T03:59:06.982Z,0.00
2019-02-17T04:00:16.496Z,0.00
2019-02-17T04:01:06.903Z,0.00
2019-02-17T04:02:06.812Z,0.00
2019-02-17T04:03:06.759Z,0.00
2019-02-17T04:04:06.702Z,0.00
2019-02-17T04:05:06.640Z,0.00
2019-02-17T04:06:06.627Z,0.00
2019-02-17T04:07:06.527Z,0.00
2019-02-17T04:08:06.473Z,0.00
2019-02-17T04:09:06.414Z,0.00
2019-02-17T04:10:06.359Z,0.00
2019-02-17T04:11:06.336Z,0.00
2019-02-17T04:12:06.243Z,0.00
2019-02-17T04:13:06.186Z,0.00
2019-02-17T04:14:06.162Z,0.00
2019-02-17T04:15:06.072Z,0.00
2019-02-17T04:16:06.017Z,0.00
2019-02-17T04:17:05.990Z,0.00
2019-02-17T04:18:05.904Z,0.00
2019-02-17T04:19:05.848Z,0.00
2019-02-17T04:20:05.790Z,0.00
2019-02-17T04:21:05.837Z,0.00
2019-02-17T04:22:05.724Z,0.00
2019-02-17T04:23:05.618Z,0.00
2019-02-17T04:24:05.565Z,0.00
2019-02-17T04:25:05.514Z,0.00
2019-02-17T04:26:05.448Z,0.00
2019-02-17T04:27:05.434Z,0.00
2019-02-17T04:28:05.335Z,0.00
2019-02-17T04:29:05.277Z,0.00
2019-02-17T04:30:05.219Z,0.00
2019-02-17T04:31:05.162Z,0.00
2019-02-17T04:32:05.139Z,0.00
2019-02-17T04:33:05.050Z,0.00
2019-02-17T04:34:05.023Z,0.00
2019-02-17T04:35:04.936Z,0.00
2019-02-17T04:36:04.879Z,0.00
2019-02-17T04:37:04.822Z,0.00
2019-02-17T04:38:04.768Z,0.00
2019-02-17T04:39:04.741Z,0.00
2019-02-17T04:40:04.652Z,0.00
2019-02-17T04:41:04.590Z,0.00
2019-02-17T04:42:04.566Z,0.00
2019-02-17T04:43:04.514Z,0.00
2019-02-17T04:44:04.423Z,0.00
2019-02-17T04:45:04.363Z,0.00
2019-02-17T04:46:04.309Z,0.00
2019-02-17T04:47:04.284Z,0.00
2019-02-17T04:48:04.196Z,0.00
2019-02-17T04:49:04.139Z,0.00
2019-02-17T04:50:04.079Z,0.00
2019-02-17T04:51:04.023Z,0.00
2019-02-17T04:52:04.005Z,0.00
2019-02-17T04:53:03.907Z,0.00
2019-02-17T04:54:03.852Z,0.00
2019-02-17T04:55:03.794Z,0.00
2019-02-17T04:56:03.739Z,0.00
2019-02-17T04:57:03.733Z,0.00
2019-02-17T04:58:03.624Z,0.00
2019-02-17T04:59:03.569Z,0.00
2019-02-17T05:00:03.509Z,0.00
2019-02-17T05:01:03.465Z,0.00
2019-02-17T05:02:03.446Z,0.00
2019-02-17T05:03:03.378Z,0.00
2019-02-17T05:04:03.283Z,0.00
2019-02-17T05:05:03.224Z,0.00
2019-02-17T05:06:03.168Z,0.00
2019-02-17T05:07:03.115Z,0.00
2019-02-17T05:08:03.096Z,0.00
2019-02-17T05:09:02.996Z,0.00
2019-02-17T05:10:02.979Z,0.00
2019-02-17T05:11:02.887Z,0.00
2019-02-17T05:12:02.828Z,0.00
2019-02-17T05:13:02.767Z,0.00
2019-02-17T05:14:02.710Z,0.00
2019-02-17T05:15:02.708Z,0.00
2019-02-17T05:16:02.599Z,0.00
2019-02-17T05:17:02.543Z,0.00
2019-02-17T05:18:02.484Z,0.00
2019-02-17T05:19:02.427Z,0.00
2019-02-17T05:20:02.404Z,0.00
2019-02-17T05:21:02.313Z,0.00
2019-02-17T05:22:02.294Z,0.00
2019-02-17T05:23:02.211Z,0.00
2019-02-17T05:24:02.143Z,0.00
2019-02-17T05:25:02.093Z,0.00
2019-02-17T05:26:02.030Z,0.00
2019-02-17T05:27:02.006Z,0.00
2019-02-17T05:28:01.917Z,0.00
2019-02-17T05:29:01.859Z,0.00
2019-02-17T05:30:01.800Z,0.00
2019-02-17T05:31:01.775Z,0.00
2019-02-17T05:32:01.689Z,0.00
2019-02-17T05:33:01.638Z,0.00
2019-02-17T05:34:01.604Z,0.00
2019-02-17T05:35:01.517Z,0.00
2019-02-17T05:36:01.458Z,0.00
2019-02-17T05:37:01.432Z,0.00
2019-02-17T05:38:01.350Z,0.00
2019-02-17T05:39:01.292Z,0.00
2019-02-17T05:40:01.238Z,0.00
2019-02-17T05:41:01.183Z,0.00
2019-02-17T05:42:01.158Z,0.00
2019-02-17T05:43:01.061Z,0.00
2019-02-17T05:44:01.034Z,0.00
2019-02-17T05:45:00.944Z,0.00
2019-02-17T05:46:00.889Z,0.00
2019-02-17T05:47:00.864Z,0.00
2019-02-17T05:48:00.783Z,0.00
2019-02-17T05:49:00.718Z,0.00
2019-02-17T05:50:00.746Z,0.00
2019-02-17T05:51:00.606Z,0.00
2019-02-17T05:52:00.546Z,0.00
2019-02-17T05:53:00.494Z,0.00
2019-02-17T05:54:00.470Z,0.00
2019-02-17T05:55:00.382Z,0.00
2019-02-17T05:56:00.322Z,0.00
2019-02-17T05:57:00.264Z,0.00
2019-02-17T05:58:00.241Z,0.00
2019-02-17T05:59:00.155Z,0.00
2019-02-17T06:00:00.516Z,0.00
2019-02-17T06:01:03.956Z,0.00
2019-02-17T06:01:59.976Z,0.00
2019-02-17T06:02:59.925Z,0.00
2019-02-17T06:03:59.866Z,0.00
2019-02-17T06:04:59.809Z,0.00
2019-02-17T06:05:59.786Z,0.00
2019-02-17T06:06:59.704Z,0.00
2019-02-17T06:07:59.636Z,0.00
2019-02-17T06:08:59.582Z,0.00
2019-02-17T06:09:59.523Z,0.00
2019-02-17T06:10:59.505Z,0.00
2019-02-17T06:11:59.411Z,0.00
2019-02-17T06:12:59.351Z,0.00
2019-02-17T06:13:59.297Z,5.63
2019-02-17T06:14:59.270Z,5.63
2019-02-17T06:15:59.185Z,5.63
2019-02-17T06:16:59.127Z,5.63
2019-02-17T06:17:59.110Z,5.63
2019-02-17T06:18:59.019Z,5.63
2019-02-17T06:19:58.959Z,11.25
2019-02-17T06:20:58.901Z,11.25
2019-02-17T06:21:58.839Z,11.25
2019-02-17T06:22:58.815Z,11.25
2019-02-17T06:23:58.729Z,11.25
2019-02-17T06:24:58.703Z,11.25
2019-02-17T06:25:58.611Z,16.88
2019-02-17T06:26:58.557Z,16.88
2019-02-17T06:27:58.497Z,16.88
2019-02-17T06:28:58.440Z,16.88
2019-02-17T06:29:58.422Z,16.88
2019-02-17T06:30:58.331Z,16.88
2019-02-17T06:31:58.267Z,16.88
2019-02-17T06:32:58.213Z,22.50
2019-02-17T06:33:58.184Z,22.50
2019-02-17T06:34:58.098Z,22.50
2019-02-17T06:35:58.078Z,28.13
2019-02-17T06:36:57.992Z,28.13
2019-02-17T06:37:57.925Z,33.75
2019-02-17T06:38:57.904Z,33.75
2019-02-17T06:39:57.812Z,33.75
2019-02-17T06:40:57.756Z,39.38
2019-02-17T06:41:57.699Z,39.38
2019-02-17T06:42:57.671Z,45.00
2019-02-17T06:43:57.593Z,50.63
2019-02-17T06:44:57.532Z,50.63
2019-02-17T06:45:57.501Z,56.25
2019-02-17T06:46:57.420Z,56.25
2019-02-17T06:47:57.353Z,61.88
2019-02-17T06:48:57.332Z,61.88
2019-02-17T06:49:57.241Z,67.50
2019-02-17T06:50:57.185Z,73.13
2019-02-17T06:51:57.125Z,73.13
2019-02-17T06:52:57.066Z,78.75
2019-02-17T06:53:57.042Z,78.75
2019-02-17T06:54:56.958Z,84.38
2019-02-17T06:55:56.899Z,84.38
2019-02-17T06:56:56.869Z,90.00
2019-02-17T06:57:56.781Z,95.63
2019-02-17T06:58:56.724Z,95.63
2019-02-17T06:59:56.702Z,101.25
2019-02-17T07:00:56.617Z,106.88
2019-02-17T07:01:56.555Z,112.50
2019-02-17T07:02:56.530Z,123.75
2019-02-17T07:03:56.439Z,129.38
2019-02-17T07:04:56.397Z,140.63
2019-02-17T07:05:56.833Z,157.50
2019-02-17T07:06:56.273Z,213.75
2019-02-17T07:07:56.252Z,461.25
2019-02-17T07:08:56.151Z,748.13
2019-02-17T07:09:56.100Z,883.13
2019-02-17T07:10:56.036Z,556.88
2019-02-17T07:11:56.868Z,292.50
2019-02-17T07:12:55.919Z,596.25
2019-02-17T07:13:55.866Z,973.13
2019-02-17T07:14:55.810Z,1209.38
2019-02-17T07:15:55.751Z,1361.25
2019-02-17T07:16:55.727Z,1614.38
2019-02-17T07:17:55.642Z,1687.50
2019-02-17T07:18:55.587Z,1676.25
2019-02-17T07:19:55.534Z,1670.63
2019-02-17T07:20:55.475Z,1828.13
2019-02-17T07:21:55.453Z,2126.25
2019-02-17T07:22:55.371Z,2233.13
2019-02-17T07:23:55.349Z,2306.25
2019-02-17T07:24:55.264Z,2401.88
2019-02-17T07:25:55.213Z,2295.00
2019-02-17T07:26:55.165Z,2306.25
2019-02-17T07:27:55.137Z,2407.50
2019-02-17T07:28:55.096Z,2311.88
2019-02-17T07:29:55.013Z,2266.88
2019-02-17T07:30:54.972Z,2362.50
2019-02-17T07:31:54.920Z,2362.50
2019-02-17T07:32:54.869Z,2401.88
2019-02-17T07:33:54.860Z,2441.25
2019-02-17T07:34:54.780Z,2413.13
2019-02-17T07:35:54.728Z,2356.88
2019-02-17T07:36:54.689Z,2272.50
2019-02-17T07:37:54.638Z,2216.25
2019-02-17T07:38:54.627Z,2295.00
2019-02-17T07:39:54.581Z,2401.88
2019-02-17T07:40:54.501Z,2475.00
2019-02-17T07:41:54.452Z,2531.25
2019-02-17T07:42:54.405Z,2626.88
2019-02-17T07:43:54.364Z,2700.00
2019-02-17T07:44:54.370Z,2711.25
2019-02-17T07:45:54.270Z,2722.50
2019-02-17T07:46:54.225Z,2649.38
2019-02-17T07:47:54.184Z,2621.25
2019-02-17T07:48:54.157Z,2649.38
2019-02-17T07:49:54.127Z,2559.38
2019-02-17T07:50:54.048Z,2486.25
2019-02-17T07:51:54.048Z,2520.00
2019-02-17T07:52:53.961Z,2626.88
2019-02-17T07:53:53.920Z,2632.50
2019-02-17T07:54:53.875Z,2649.38
2019-02-17T07:55:53.833Z,2649.38
2019-02-17T07:56:53.822Z,2705.63
2019-02-17T07:57:53.749Z,2716.88
2019-02-17T07:58:53.703Z,2778.75
2019-02-17T07:59:53.661Z,2891.25
2019-02-17T08:00:53.618Z,2964.38
2019-02-17T08:01:53.608Z,2941.88
2019-02-17T08:02:53.533Z,3054.38
2019-02-17T08:03:53.490Z,3178.13
2019-02-17T08:04:53.476Z,3116.25
2019-02-17T08:05:53.408Z,3138.75
2019-02-17T08:06:53.369Z,3048.75
2019-02-17T08:07:53.324Z,3060.00
2019-02-17T08:08:53.281Z,3110.63
2019-02-17T08:09:53.278Z,3076.88
2019-02-17T08:11:01.751Z,2981.25
2019-02-17T08:11:53.155Z,2885.63
2019-02-17T08:12:53.141Z,3043.13
2019-02-17T08:13:53.071Z,2958.75
2019-02-17T08:14:53.054Z,2919.38
2019-02-17T08:15:52.994Z,2812.50
2019-02-17T08:16:52.948Z,2756.25
2019-02-17T08:17:52.940Z,3127.50
2019-02-17T08:18:52.909Z,3251.25
2019-02-17T08:19:52.825Z,3155.63
2019-02-17T08:20:52.785Z,3037.50
2019-02-17T08:21:52.740Z,2992.50
2019-02-17T08:22:52.730Z,3200.63
2019-02-17T08:23:52.660Z,3313.13
2019-02-17T08:24:52.617Z,3318.75
2019-02-17T08:25:52.608Z,3285.00
2019-02-17T08:26:52.539Z,3335.63
2019-02-17T08:27:52.493Z,3476.25
2019-02-17T08:28:52.456Z,3498.75
2019-02-17T08:29:52.443Z,3594.38
2019-02-17T08:30:52.375Z,3555.00
2019-02-17T08:31:55.969Z,3622.50
2019-02-17T08:32:52.289Z,3661.88
2019-02-17T08:33:52.283Z,3791.25
2019-02-17T08:34:53.211Z,3751.88
2019-02-17T08:35:52.174Z,3684.38
2019-02-17T08:36:52.128Z,3532.50
2019-02-17T08:37:52.106Z,3228.75
2019-02-17T08:38:52.180Z,3408.75
2019-02-17T08:39:52.012Z,3335.63
2019-02-17T08:40:51.973Z,3307.50
2019-02-17T08:41:51.935Z,3352.50
2019-02-17T08:42:51.896Z,3268.13
2019-02-17T08:43:51.917Z,3245.63
2019-02-17T08:44:51.848Z,3178.13
2019-02-17T08:45:51.778Z,2947.50
2019-02-17T08:46:51.737Z,3015.00
2019-02-17T08:47:51.700Z,3048.75
2019-02-17T08:48:51.660Z,3076.88
2019-02-17T08:49:51.654Z,3223.13
2019-02-17T08:50:51.581Z,3279.38
2019-02-17T08:51:51.545Z,3234.38
2019-02-17T08:52:51.538Z,3183.75
2019-02-17T08:53:51.466Z,3054.38
2019-02-17T08:54:51.426Z,2919.38
2019-02-17T08:55:51.388Z,3082.50
2019-02-17T08:56:51.381Z,3144.38
2019-02-17T08:57:51.310Z,3144.38
2019-02-17T08:58:51.271Z,3178.13
2019-02-17T08:59:51.234Z,3318.75
2019-02-17T09:00:51.197Z,3391.88
2019-02-17T09:01:51.188Z,3330.00
2019-02-17T09:02:51.151Z,3234.38
2019-02-17T09:03:51.073Z,3195.00
2019-02-17T09:04:51.069Z,3313.13
2019-02-17T09:05:50.997Z,3324.38
2019-02-17T09:06:50.956Z,3346.88
2019-02-17T09:07:50.917Z,3369.38
2019-02-17T09:08:50.910Z,3493.13
2019-02-17T09:09:50.838Z,3611.25
2019-02-17T09:10:50.830Z,3442.50
2019-02-17T09:11:50.766Z,3408.75
2019-02-17T09:12:50.728Z,3493.13
2019-02-17T09:13:50.687Z,3560.63
2019-02-17T09:14:50.644Z,3616.88
2019-02-17T09:15:50.639Z,3577.50
2019-02-17T09:16:50.568Z,3403.13
2019-02-17T09:17:50.528Z,3476.25
2019-02-17T09:18:50.490Z,3459.38
2019-02-17T09:19:50.454Z,3487.50
2019-02-17T09:20:50.455Z,3521.25
2019-02-17T09:21:50.376Z,3549.38
2019-02-17T09:22:50.335Z,3498.75
2019-02-17T09:23:50.301Z,3504.38
2019-02-17T09:24:50.260Z,3616.88
2019-02-17T09:25:50.255Z,3571.88
2019-02-17T09:26:50.181Z,3701.25
2019-02-17T09:27:50.144Z,3656.25
2019-02-17T09:28:50.110Z,3673.13
2019-02-17T09:29:50.073Z,3633.75
2019-02-17T09:30:50.075Z,3673.13
2019-02-17T09:31:49.994Z,3735.00
2019-02-17T09:32:49.958Z,3690.00
2019-02-17T09:33:49.920Z,3740.63
2019-02-17T09:34:49.885Z,3847.50
2019-02-17T09:35:49.979Z,3774.38
2019-02-17T09:36:49.804Z,3532.50
2019-02-17T09:37:49.768Z,3555.00
2019-02-17T09:38:49.729Z,3560.63
2019-02-17T09:39:49.695Z,3448.13
2019-02-17T09:40:49.704Z,3279.38
2019-02-17T09:41:49.617Z,3065.63
2019-02-17T09:42:49.581Z,2565.00
2019-02-17T09:43:49.564Z,1822.50
2019-02-17T09:44:49.506Z,1164.38
2019-02-17T09:45:49.502Z,826.88
2019-02-17T09:46:49.466Z,759.38
2019-02-17T09:47:49.400Z,736.88
2019-02-17T09:48:49.590Z,720.00
2019-02-17T09:49:49.331Z,714.38
2019-02-17T09:50:49.284Z,686.25
2019-02-17T09:51:49.278Z,680.63
2019-02-17T09:52:49.207Z,675.00
2019-02-17T09:53:49.173Z,669.38
2019-02-17T09:54:49.135Z,658.13
2019-02-17T09:55:49.098Z,658.13
2019-02-17T09:56:49.095Z,658.13
2019-02-17T09:57:49.024Z,646.88
2019-02-17T09:58:49.028Z,630.00
2019-02-17T09:59:48.972Z,624.38
2019-02-17T10:00:48.912Z,613.13
2019-02-17T10:01:48.877Z,613.13
2019-02-17T10:02:48.843Z,624.38
2019-02-17T10:03:48.853Z,618.75
2019-02-17T10:04:48.762Z,613.13
2019-02-17T10:05:48.725Z,613.13
2019-02-17T10:06:48.686Z,613.13
2019-02-17T10:07:48.651Z,613.13
2019-02-17T10:08:48.642Z,590.63
2019-02-17T10:09:48.573Z,590.63
2019-02-17T10:10:48.540Z,596.25
2019-02-17T10:11:48.497Z,601.88
2019-02-17T10:12:48.502Z,596.25
2019-02-17T10:13:48.421Z,596.25
2019-02-17T10:14:48.381Z,590.63
2019-02-17T10:15:48.345Z,590.63
2019-02-17T10:16:48.306Z,585.00
2019-02-17T10:17:48.309Z,585.00
2019-02-17T10:18:48.229Z,573.75
2019-02-17T10:19:48.194Z,562.50
2019-02-17T10:20:48.153Z,545.63
2019-02-17T10:21:48.113Z,534.38
2019-02-17T10:22:48.113Z,528.75
2019-02-17T10:23:48.034Z,528.75
2019-02-17T10:24:48.008Z,523.13
2019-02-17T10:25:47.997Z,523.13
2019-02-17T10:26:48.024Z,528.75
2019-02-17T10:27:48.049Z,534.38
2019-02-17T10:28:48.002Z,540.00
2019-02-17T10:29:47.800Z,540.00
2019-02-17T10:30:47.989Z,540.00
2019-02-17T10:31:47.751Z,534.38
2019-02-17T10:32:47.682Z,540.00
2019-02-17T10:33:47.641Z,540.00
2019-02-17T10:34:47.600Z,534.38
2019-02-17T10:35:47.590Z,523.13
2019-02-17T10:36:47.544Z,517.50
2019-02-17T10:37:47.479Z,517.50
2019-02-17T10:38:47.440Z,517.50
2019-02-17T10:39:47.397Z,511.88
2019-02-17T10:40:47.402Z,511.88
2019-02-17T10:41:47.314Z,495.00
2019-02-17T10:42:47.274Z,483.75
2019-02-17T10:43:47.235Z,478.13
2019-02-17T10:44:47.190Z,472.50
2019-02-17T10:45:47.180Z,472.50
2019-02-17T10:46:47.106Z,489.38
2019-02-17T10:47:47.100Z,483.75
2019-02-17T10:48:47.066Z,478.13
2019-02-17T10:49:46.984Z,466.88
2019-02-17T10:50:46.969Z,472.50
2019-02-17T10:51:47.053Z,466.88
2019-02-17T10:52:47.033Z,461.25
2019-02-17T10:53:46.846Z,461.25
2019-02-17T10:54:47.044Z,461.25
2019-02-17T10:55:46.728Z,455.63
2019-02-17T10:56:46.682Z,450.00
2019-02-17T10:57:46.641Z,455.63
2019-02-17T10:58:46.635Z,438.75
2019-02-17T10:59:46.553Z,433.13
2019-02-17T11:00:46.512Z,433.13
2019-02-17T11:01:46.465Z,444.38
2019-02-17T11:02:47.632Z,450.00
2019-02-17T11:03:46.438Z,450.00
2019-02-17T11:04:46.336Z,455.63
2019-02-17T11:05:46.295Z,444.38
2019-02-17T11:06:46.250Z,444.38
2019-02-17T11:07:46.244Z,450.00
2019-02-17T11:08:46.159Z,450.00
2019-02-17T11:09:46.126Z,444.38
2019-02-17T11:10:46.073Z,438.75
2019-02-17T11:11:46.060Z,438.75
2019-02-17T11:12:45.982Z,438.75
2019-02-17T11:13:46.508Z,438.75
2019-02-17T11:14:45.895Z,444.38
2019-02-17T11:15:45.857Z,438.75
2019-02-17T11:16:45.837Z,444.38
2019-02-17T11:17:45.765Z,444.38
2019-02-17T11:18:45.718Z,450.00
2019-02-17T11:19:45.703Z,450.00
2019-02-17T11:20:45.626Z,427.50
2019-02-17T11:21:45.621Z,433.13
2019-02-17T11:22:45.538Z,438.75
2019-02-17T11:23:45.504Z,438.75
2019-02-17T11:24:45.487Z,444.38
2019-02-17T11:25:45.406Z,455.63
2019-02-17T11:26:45.358Z,444.38
2019-02-17T11:27:45.313Z,438.75
2019-02-17T11:28:45.277Z,438.75
2019-02-17T11:29:45.256Z,444.38
2019-02-17T11:30:45.180Z,438.75
2019-02-17T11:31:45.168Z,433.13
2019-02-17T11:32:45.089Z,438.75
2019-02-17T11:33:45.043Z,444.38
2019-02-17T11:34:44.998Z,427.50
2019-02-17T11:35:45.019Z,427.50
2019-02-17T11:36:44.907Z,427.50
2019-02-17T11:37:45.274Z,433.13
2019-02-17T11:38:44.820Z,427.50
2019-02-17T11:39:44.774Z,421.88
2019-02-17T11:40:44.763Z,421.88
2019-02-17T11:41:44.684Z,421.88
2019-02-17T11:42:44.639Z,421.88
2019-02-17T11:43:44.632Z,410.63
2019-02-17T11:44:44.551Z,388.13
2019-02-17T11:45:44.505Z,376.88
2019-02-17T11:46:44.458Z,371.25
2019-02-17T11:47:44.415Z,371.25
2019-02-17T11:48:44.394Z,365.63
2019-02-17T11:49:44.325Z,360.00
2019-02-17T11:50:44.281Z,354.38
2019-02-17T11:51:44.236Z,348.75
2019-02-17T11:52:44.224Z,337.50
2019-02-17T11:53:44.145Z,348.75
2019-02-17T11:54:44.105Z,354.38
2019-02-17T11:55:44.064Z,360.00
2019-02-17T11:56:44.045Z,348.75
2019-02-17T11:57:43.973Z,337.50
2019-02-17T11:58:43.921Z,348.75
2019-02-17T11:59:43.882Z,354.38
2019-02-17T12:00:43.834Z,354.38
2019-02-17T12:01:43.824Z,348.75
2019-02-17T12:02:43.770Z,343.13
2019-02-17T12:03:43.730Z,343.13
2019-02-17T12:04:43.653Z,354.38
2019-02-17T12:05:43.608Z,354.38
2019-02-17T12:06:43.571Z,354.38
2019-02-17T12:07:43.518Z,354.38
2019-02-17T12:08:43.509Z,354.38
2019-02-17T12:09:43.430Z,354.38
2019-02-17T12:10:43.383Z,326.25
2019-02-17T12:11:43.338Z,326.25
2019-02-17T12:12:43.372Z,343.13
2019-02-17T12:13:43.281Z,354.38
2019-02-17T12:14:43.204Z,360.00
2019-02-17T12:15:43.209Z,371.25
2019-02-17T12:16:43.119Z,371.25
2019-02-17T12:17:43.070Z,376.88
2019-02-17T12:18:43.025Z,376.88
2019-02-17T12:19:42.990Z,382.50
2019-02-17T12:20:42.969Z,382.50
2019-02-17T12:21:42.892Z,371.25
2019-02-17T12:22:42.911Z,371.25
2019-02-17T12:23:42.845Z,371.25
2019-02-17T12:24:42.834Z,371.25
2019-02-17T12:25:42.714Z,365.63
2019-02-17T12:26:42.674Z,365.63
2019-02-17T12:27:42.637Z,343.13
2019-02-17T12:28:42.615Z,315.00
2019-02-17T12:29:42.534Z,286.88
2019-02-17T12:30:42.487Z,292.50
2019-02-17T12:31:42.446Z,326.25
2019-02-17T12:32:42.398Z,320.63
2019-02-17T12:33:42.385Z,303.75
2019-02-17T12:34:42.312Z,286.88
2019-02-17T12:35:42.268Z,298.13
2019-02-17T12:36:42.254Z,303.75
2019-02-17T12:37:42.176Z,309.38
2019-02-17T12:38:42.129Z,298.13
2019-02-17T12:39:42.102Z,320.63
2019-02-17T12:40:42.076Z,309.38
2019-02-17T12:41:42.118Z,309.38
2019-02-17T12:42:41.953Z,320.63
2019-02-17T12:43:41.909Z,292.50
2019-02-17T12:44:41.870Z,320.63
2019-02-17T12:45:41.859Z,320.63
2019-02-17T12:46:41.779Z,303.75
2019-02-17T12:47:41.732Z,292.50